createdAt,value
2022-11-05T00:01:25.691Z,100538.41
2022-11-05T00:03:52.252Z,100534.31
2022-11-05T00:06:18.772Z,100538.94
2022-11-05T00:08:45.281Z,100541.38
2022-11-05T00:11:16.853Z,100548.59
2022-11-05T00:13:44.619Z,100547.88
2022-11-05T00:16:12.362Z,100546.41
2022-11-05T00:18:38.968Z,100549.84
2022-11-05T00:21:05.795Z,100547.72
2022-11-05T00:23:32.191Z,100557.44
2022-11-05T00:26:00.482Z,100554.25
2022-11-05T00:28:28.260Z,100558.25
2022-11-05T00:31:00.292Z,100563.16
2022-11-05T00:33:28.117Z,100562.03
2022-11-05T00:35:54.796Z,100573.06
2022-11-05T00:38:21.242Z,100568.53
2022-11-05T00:40:47.790Z,100568.63
2022-11-05T00:43:14.329Z,100569.72
2022-11-05T00:45:40.810Z,100572.09
2022-11-05T00:48:07.357Z,100580.63
2022-11-05T00:50:35.160Z,100583.13
2022-11-05T00:53:01.997Z,100573.97
2022-11-05T00:55:32.144Z,100573.22
2022-11-05T00:57:59.118Z,100581.63
2022-11-05T01:00:27.714Z,100580.06
2022-11-05T01:02:57.599Z,100575.09
2022-11-05T01:05:24.048Z,100587.13
2022-11-05T01:07:53.465Z,100586.13
2022-11-05T01:10:20.715Z,100593.16
2022-11-05T01:12:47.603Z,100600.50
2022-11-05T01:15:14.858Z,100595.13
2022-11-05T01:17:41.394Z,100601.19
2022-11-05T01:20:08.730Z,100608.25
2022-11-05T01:22:35.166Z,100605.03
2022-11-05T01:25:03.017Z,100609.94
2022-11-05T01:27:29.499Z,100612.53
2022-11-05T01:29:56.122Z,100607.59
2022-11-05T01:32:22.594Z,100618.53
2022-11-05T01:34:48.996Z,100614.34
2022-11-05T01:37:15.406Z,100623.56
2022-11-05T01:39:41.810Z,100619.06
2022-11-05T01:42:18.970Z,100621.03
2022-11-05T01:44:54.071Z,100619.03
2022-11-05T01:47:29.098Z,100610.66
2022-11-05T01:49:59.071Z,100606.94
2022-11-05T01:52:28.491Z,100619.13
2022-11-05T01:54:55.814Z,100624.31
2022-11-05T01:57:23.819Z,100610.16
2022-11-05T01:59:55.452Z,100618.63
2022-11-05T02:02:23.204Z,100622.78
2022-11-05T02:04:54.041Z,100622.31
2022-11-05T02:07:21.480Z,100623.22
2022-11-05T02:09:51.084Z,100617.09
2022-11-05T02:12:19.543Z,100625.63
2022-11-05T02:14:47.299Z,100617.88
2022-11-05T02:17:23.232Z,100627.06
2022-11-05T02:20:14.384Z,100619.50
2022-11-05T02:23:05.302Z,100619.22
2022-11-05T02:25:57.986Z,100629.47
2022-11-05T02:28:49.886Z,100627.22
2022-11-05T02:31:25.810Z,100622.34
2022-11-05T02:34:00.379Z,100622.59
2022-11-05T02:36:38.661Z,100625.03
2022-11-05T02:39:20.800Z,100615.19
2022-11-05T02:41:59.331Z,100618.53
2022-11-05T02:44:39.473Z,100619.41
2022-11-05T02:47:17.953Z,100617.28
2022-11-05T02:49:53.882Z,100617.66
2022-11-05T02:52:27.260Z,100622.41
2022-11-05T02:54:59.418Z,100616.22
2022-11-05T02:57:29.448Z,100616.44
2022-11-05T03:00:04.641Z,100611.91
2022-11-05T03:02:32.873Z,100618.22
2022-11-05T03:05:00.658Z,100628.47
2022-11-05T03:07:44.412Z,100628.81
2022-11-05T03:10:33.470Z,100628.19
2022-11-05T03:13:12.765Z,100635.44
2022-11-05T03:15:57.461Z,100637.94
2022-11-05T03:18:35.390Z,100634.31
2022-11-05T03:21:06.614Z,100640.63
2022-11-05T03:23:40.236Z,100640.75
2022-11-05T03:26:14.246Z,100640.56
2022-11-05T03:28:44.074Z,100649.50
2022-11-05T03:31:13.174Z,100649.06
2022-11-05T03:33:43.351Z,100654.00
2022-11-05T03:36:13.662Z,100657.53
2022-11-05T03:38:44.001Z,100656.78
2022-11-05T03:41:15.194Z,100648.91
2022-11-05T03:43:46.674Z,100659.41
2022-11-05T03:46:20.774Z,100661.25
2022-11-05T03:48:52.168Z,100656.16
2022-11-05T03:51:28.645Z,100661.03
2022-11-05T03:53:57.634Z,100666.94
2022-11-05T03:56:30.653Z,100659.25
2022-11-05T03:58:59.388Z,100666.22
2022-11-05T04:01:26.428Z,100671.66
2022-11-05T04:03:54.466Z,100674.47
2022-11-05T04:06:20.903Z,100683.19
2022-11-05T04:08:47.390Z,100685.09
2022-11-05T04:11:13.982Z,100684.81
2022-11-05T04:13:40.365Z,100688.47
2022-11-05T04:16:07.179Z,100689.81
2022-11-05T04:18:33.594Z,100690.16
2022-11-05T04:21:01.353Z,100694.28
2022-11-05T04:23:27.772Z,100700.00
2022-11-05T04:25:54.311Z,100698.91
2022-11-05T04:28:20.786Z,100702.25
2022-11-05T04:30:47.194Z,100700.22
2022-11-05T04:33:15.830Z,100708.09
2022-11-05T04:35:43.949Z,100700.56
2022-11-05T04:38:13.282Z,100705.31
2022-11-05T04:40:39.675Z,100708.19
2022-11-05T04:43:10.595Z,100713.16
2022-11-05T04:45:41.192Z,100710.91
2022-11-05T04:48:07.661Z,100722.75
2022-11-05T04:50:34.878Z,100723.91
2022-11-05T04:53:01.309Z,100716.59
2022-11-05T04:55:29.306Z,100722.28
2022-11-05T04:57:55.726Z,100715.97
2022-11-05T05:00:23.739Z,100721.75
2022-11-05T05:02:50.176Z,100722.69
2022-11-05T05:05:16.867Z,100726.09
2022-11-05T05:07:43.470Z,100728.13
2022-11-05T05:10:10.806Z,100730.59
2022-11-05T05:12:38.538Z,100729.31
2022-11-05T05:15:06.045Z,100731.84
2022-11-05T05:17:32.599Z,100734.56
2022-11-05T05:19:58.991Z,100735.84
2022-11-05T05:22:25.527Z,100733.66
2022-11-05T05:24:53.122Z,100726.44
2022-11-05T05:27:19.716Z,100733.66
2022-11-05T05:29:47.628Z,100737.72
2022-11-05T05:32:14.050Z,100736.78
2022-11-05T05:34:40.451Z,100747.19
2022-11-05T05:37:06.880Z,100753.06
2022-11-05T05:39:33.286Z,100744.03
2022-11-05T05:41:59.670Z,100748.69
2022-11-05T05:44:26.116Z,100749.28
2022-11-05T05:46:54.883Z,100756.53
2022-11-05T05:49:21.488Z,100760.44
2022-11-05T05:51:48.616Z,100757.50
2022-11-05T05:54:15.399Z,100762.25
2022-11-05T05:56:42.776Z,100771.28
2022-11-05T05:59:09.237Z,100767.78
2022-11-05T06:01:35.987Z,100763.19
2022-11-05T06:04:04.190Z,100761.25
2022-11-05T06:06:30.748Z,100758.13
2022-11-05T06:08:57.183Z,100757.47
2022-11-05T06:11:24.755Z,100763.31
2022-11-05T06:13:51.327Z,100766.31
2022-11-05T06:16:17.978Z,100774.72
2022-11-05T06:18:44.393Z,100775.22
2022-11-05T06:21:14.034Z,100782.47
2022-11-05T06:23:42.151Z,100781.59
2022-11-05T06:26:10.922Z,100785.97
2022-11-05T06:28:37.710Z,100785.09
2022-11-05T06:31:04.579Z,100777.81
2022-11-05T06:33:31.274Z,100786.66
2022-11-05T06:35:58.926Z,100787.13
2022-11-05T06:38:27.098Z,100786.75
2022-11-05T06:40:53.491Z,100789.59
2022-11-05T06:43:19.933Z,100794.66
2022-11-05T06:45:46.319Z,100794.50
2022-11-05T06:48:12.696Z,100792.38
2022-11-05T06:50:39.102Z,100810.69
2022-11-05T06:53:05.513Z,100813.34
2022-11-05T06:55:33.251Z,100815.84
2022-11-05T06:57:59.703Z,100822.38
2022-11-05T07:00:26.185Z,100843.78
2022-11-05T07:02:52.661Z,100841.69
2022-11-05T07:05:19.233Z,100831.31
2022-11-05T07:07:45.870Z,100836.41
2022-11-05T07:10:15.155Z,100832.06
2022-11-05T07:12:43.331Z,100829.88
2022-11-05T07:15:11.504Z,100832.84
2022-11-05T07:17:38.022Z,100839.41
2022-11-05T07:20:06.090Z,100846.59
2022-11-05T07:22:32.541Z,100841.72
2022-11-05T07:24:58.925Z,100844.22
2022-11-05T07:27:25.433Z,100852.97
2022-11-05T07:29:53.222Z,100856.91
2022-11-05T07:32:19.595Z,100860.22
2022-11-05T07:34:46.001Z,100860.91
2022-11-05T07:37:12.437Z,100864.19
2022-11-05T07:39:38.850Z,100869.72
2022-11-05T07:42:05.496Z,100863.94
2022-11-05T07:44:31.885Z,100869.41
2022-11-05T07:46:59.618Z,100863.22
2022-11-05T07:49:26.027Z,100862.84
2022-11-05T07:51:52.439Z,100866.91
2022-11-05T07:54:18.853Z,100873.28
2022-11-05T07:56:46.639Z,100882.56
2022-11-05T07:59:13.097Z,100874.38
2022-11-05T08:01:39.641Z,100872.53
2022-11-05T08:04:07.746Z,100881.38
2022-11-05T08:06:34.134Z,100879.97
2022-11-05T08:09:00.617Z,100884.50
2022-11-05T08:11:27.013Z,100883.63
2022-11-05T08:13:53.451Z,100881.59
2022-11-05T08:16:19.939Z,100893.56
2022-11-05T08:18:46.389Z,100893.38
2022-11-05T08:21:14.112Z,100904.38
2022-11-05T08:23:40.547Z,100902.78
2022-11-05T08:26:07.151Z,100899.69
2022-11-05T08:28:33.563Z,100902.47
2022-11-05T08:30:59.945Z,100905.81
2022-11-05T08:33:26.721Z,100912.81
2022-11-05T08:35:53.255Z,100908.53
2022-11-05T08:38:20.989Z,100921.78
2022-11-05T08:40:54.506Z,100920.72
2022-11-05T08:43:21.359Z,100919.41
2022-11-05T08:45:47.836Z,100924.91
2022-11-05T08:48:16.113Z,100925.53
2022-11-05T08:50:43.701Z,100927.41
2022-11-05T08:53:10.740Z,100929.56
2022-11-05T08:55:38.935Z,100926.81
2022-11-05T08:58:09.278Z,100933.06
2022-11-05T09:00:37.223Z,100927.19
2022-11-05T09:03:05.741Z,100930.03
2022-11-05T09:05:34.108Z,100930.63
2022-11-05T09:08:01.683Z,100929.13
2022-11-05T09:10:28.546Z,100931.47
2022-11-05T09:12:56.378Z,100930.44
2022-11-05T09:15:23.303Z,100941.28
2022-11-05T09:17:49.970Z,100944.22
2022-11-05T09:20:16.414Z,100939.09
2022-11-05T09:22:43.571Z,100945.59
2022-11-05T09:25:10.332Z,100950.09
2022-11-05T09:27:36.768Z,100950.78
2022-11-05T09:30:05.757Z,100950.94
2022-11-05T09:32:32.392Z,100947.69
2022-11-05T09:34:58.831Z,100951.28
2022-11-05T09:37:25.248Z,100960.91
2022-11-05T09:39:51.687Z,100969.94
2022-11-05T09:42:21.240Z,100968.31
2022-11-05T09:44:51.488Z,100980.25
2022-11-05T09:47:23.860Z,100974.13
2022-11-05T09:49:53.840Z,100974.78
2022-11-05T09:52:22.349Z,100972.94
2022-11-05T09:54:49.566Z,100969.31
2022-11-05T09:57:20.905Z,100976.69
2022-11-05T09:59:51.008Z,100972.75
2022-11-05T10:02:22.182Z,100976.75
2022-11-05T10:04:51.964Z,100973.06
2022-11-05T10:07:22.918Z,100975.00
2022-11-05T10:09:53.553Z,100974.19
2022-11-05T10:12:25.735Z,100986.75
2022-11-05T10:15:05.579Z,100986.81
2022-11-05T10:17:39.198Z,100986.28
2022-11-05T10:20:13.406Z,100993.22
2022-11-05T10:22:41.976Z,100996.16
2022-11-05T10:25:17.675Z,100989.22
2022-11-05T10:27:49.867Z,100987.34
2022-11-05T10:30:16.642Z,100987.72
2022-11-05T10:32:46.473Z,100987.41
2022-11-05T10:35:15.342Z,100994.84
2022-11-05T10:37:41.777Z,100989.78
2022-11-05T10:40:16.718Z,100984.66
2022-11-05T10:42:59.087Z,100989.75
2022-11-05T10:45:34.944Z,100994.84
2022-11-05T10:48:21.428Z,100988.06
2022-11-05T10:50:48.245Z,101004.09
2022-11-05T10:53:18.029Z,100999.66
2022-11-05T10:55:47.197Z,100996.50
2022-11-05T10:58:20.324Z,100997.63
2022-11-05T11:01:04.700Z,101007.84
2022-11-05T11:03:37.541Z,101006.47
2022-11-05T11:06:12.502Z,101000.63
2022-11-05T11:08:39.073Z,100990.03
2022-11-05T11:11:10.329Z,100995.59
2022-11-05T11:13:51.475Z,100998.47
2022-11-05T11:16:21.979Z,100996.72
2022-11-05T11:18:52.990Z,101001.72
2022-11-05T11:21:20.378Z,100999.38
2022-11-05T11:23:55.188Z,100992.97
2022-11-05T11:26:24.173Z,101000.50
2022-11-05T11:28:56.495Z,101000.50
2022-11-05T11:31:25.158Z,101002.31
2022-11-05T11:33:58.358Z,101004.66
2022-11-05T11:36:31.822Z,100999.91
2022-11-05T11:38:59.637Z,100998.88
2022-11-05T11:41:31.071Z,101009.00
2022-11-05T11:44:04.414Z,101000.56
2022-11-05T11:46:33.900Z,100998.44
2022-11-05T11:49:02.288Z,101001.47
2022-11-05T11:51:31.246Z,101000.94
2022-11-05T11:53:59.640Z,101002.59
2022-11-05T11:56:26.631Z,100999.41
2022-11-05T11:58:54.986Z,100996.56
2022-11-05T12:01:47.354Z,100999.91
2022-11-05T12:04:25.931Z,100996.16
2022-11-05T12:07:04.830Z,101003.03
2022-11-05T12:09:51.830Z,100993.06
2022-11-05T12:12:25.904Z,100997.75
2022-11-05T12:14:57.097Z,100997.59
2022-11-05T12:17:38.682Z,100984.56
2022-11-05T12:20:33.734Z,100988.66
2022-11-05T12:23:11.636Z,100993.75
2022-11-05T12:25:45.369Z,100987.47
2022-11-05T12:28:26.358Z,100981.41
2022-11-05T12:30:59.603Z,100980.38
2022-11-05T12:33:38.261Z,100981.72
2022-11-05T12:36:20.835Z,100976.88
2022-11-05T12:39:05.539Z,100981.19
2022-11-05T12:41:37.535Z,100970.91
2022-11-05T12:44:20.495Z,100969.69
2022-11-05T12:46:59.201Z,100973.59
2022-11-05T12:49:37.626Z,100978.41
2022-11-05T12:52:20.827Z,100974.00
2022-11-05T12:54:58.411Z,100983.47
2022-11-05T12:57:27.462Z,100977.06
2022-11-05T13:00:01.868Z,100978.06
2022-11-05T13:02:33.547Z,100977.59
2022-11-05T13:05:06.115Z,100979.38
2022-11-05T13:07:38.911Z,100971.56
2022-11-05T13:10:13.946Z,100982.25
2022-11-05T13:12:42.418Z,100989.88
2022-11-05T13:15:26.522Z,100975.81
2022-11-05T13:17:58.090Z,100971.06
2022-11-05T13:20:28.593Z,100981.94
2022-11-05T13:23:02.137Z,100970.56
2022-11-05T13:25:30.996Z,100972.84
2022-11-05T13:28:03.459Z,100964.47
2022-11-05T13:30:33.519Z,100977.28
2022-11-05T13:33:04.131Z,100966.06
2022-11-05T13:35:37.175Z,100970.88
2022-11-05T13:38:08.289Z,100965.91
2022-11-05T13:40:44.529Z,100968.28
2022-11-05T13:43:34.060Z,100973.34
2022-11-05T13:46:25.144Z,100973.84
2022-11-05T13:49:06.741Z,100970.69
2022-11-05T13:51:48.226Z,100974.78
2022-11-05T13:54:52.089Z,100974.91
2022-11-05T13:57:32.019Z,100977.09
2022-11-05T14:00:06.625Z,100970.38
2022-11-05T14:02:38.499Z,100979.53
2022-11-05T14:05:06.771Z,100972.22
2022-11-05T14:07:36.367Z,100971.72
2022-11-05T14:10:16.457Z,100968.13
2022-11-05T14:12:47.727Z,100967.97
2022-11-05T14:15:19.442Z,100959.69
2022-11-05T14:17:58.526Z,100960.22
2022-11-05T14:20:58.844Z,100955.50
2022-11-05T14:23:50.077Z,100960.38
2022-11-05T14:26:23.244Z,100961.50
2022-11-05T14:29:11.585Z,100966.25
2022-11-05T14:32:09.820Z,100965.78
2022-11-05T14:34:42.362Z,100967.38
2022-11-05T14:37:29.650Z,100973.16
2022-11-05T14:39:56.896Z,100966.56
2022-11-05T14:42:27.909Z,100972.94
2022-11-05T14:44:58.411Z,100969.69
2022-11-05T14:47:28.790Z,100980.75
2022-11-05T14:49:59.867Z,100975.94
2022-11-05T14:52:26.583Z,100982.22
2022-11-05T14:54:55.501Z,100979.88
2022-11-05T14:58:03.649Z,100973.66
2022-11-05T15:00:48.609Z,100975.69
2022-11-05T15:03:48.750Z,100984.50
2022-11-05T15:06:26.884Z,100987.38
2022-11-05T15:09:16.767Z,100988.28
2022-11-05T15:11:50.919Z,100995.25
2022-11-05T15:14:22.551Z,100985.97
2022-11-05T15:16:54.027Z,100987.78
2022-11-05T15:19:25.813Z,100988.41
2022-11-05T15:21:56.463Z,100983.41
2022-11-05T15:24:24.027Z,100984.25
2022-11-05T15:26:58.918Z,100981.38
2022-11-05T15:29:28.650Z,100983.63
2022-11-05T15:31:56.449Z,100984.50
2022-11-05T15:34:24.925Z,100982.50
2022-11-05T15:36:54.983Z,100991.06
2022-11-05T15:39:33.246Z,100989.91
2022-11-05T15:42:03.218Z,100987.97
2022-11-05T15:44:31.113Z,100990.03
2022-11-05T15:47:13.925Z,100993.88
2022-11-05T15:49:41.955Z,100994.34
2022-11-05T15:52:11.666Z,100987.13
2022-11-05T15:54:38.369Z,100987.66
2022-11-05T15:57:05.145Z,100974.63
2022-11-05T15:59:31.642Z,100981.72
2022-11-05T16:02:05.692Z,100980.88
2022-11-05T16:04:34.522Z,100981.41
2022-11-05T16:07:07.653Z,100983.81
2022-11-05T16:09:37.819Z,100987.50
2022-11-05T16:12:22.583Z,100985.25
2022-11-05T16:14:56.910Z,100985.69
2022-11-05T16:17:25.392Z,100978.97
2022-11-05T16:19:53.950Z,100977.13
2022-11-05T16:22:20.639Z,100975.88
2022-11-05T16:24:47.850Z,100964.13
2022-11-05T16:27:19.377Z,100974.66
2022-11-05T16:29:51.598Z,100976.28
2022-11-05T16:32:25.409Z,100978.69
2022-11-05T16:35:00.693Z,100976.97
2022-11-05T16:37:29.327Z,100978.09
2022-11-05T16:39:55.876Z,100971.34
2022-11-05T16:42:49.715Z,100973.75
2022-11-05T16:45:18.208Z,100980.66
2022-11-05T16:47:45.306Z,100974.66
2022-11-05T16:50:24.606Z,100984.53
2022-11-05T16:52:51.377Z,100986.56
2022-11-05T16:55:18.501Z,100991.03
2022-11-05T16:57:49.193Z,100989.06
2022-11-05T17:00:18.150Z,100985.50
2022-11-05T17:02:44.757Z,100983.34
2022-11-05T17:05:24.870Z,100988.16
2022-11-05T17:07:52.015Z,100992.28
2022-11-05T17:10:19.277Z,100994.22
2022-11-05T17:12:46.575Z,101004.69
2022-11-05T17:15:22.755Z,101006.03
2022-11-05T17:17:49.918Z,101001.84
2022-11-05T17:20:27.409Z,101010.31
2022-11-05T17:22:54.023Z,101010.31
2022-11-05T17:25:20.453Z,101016.56
2022-11-05T17:27:46.918Z,101009.50
2022-11-05T17:30:14.066Z,101007.56
2022-11-05T17:32:41.012Z,101004.59
2022-11-05T17:35:08.424Z,101006.41
2022-11-05T17:37:36.228Z,101010.47
2022-11-05T17:40:04.782Z,101016.47
2022-11-05T17:42:31.291Z,101009.19
2022-11-05T17:44:57.739Z,101011.22
2022-11-05T17:47:25.682Z,101013.03
2022-11-05T17:49:52.139Z,101016.31
2022-11-05T17:52:18.642Z,101014.66
2022-11-05T17:54:46.370Z,101023.44
2022-11-05T17:57:12.916Z,101023.31
2022-11-05T17:59:39.382Z,101019.00
2022-11-05T18:02:06.427Z,101028.88
2022-11-05T18:04:32.925Z,101032.78
2022-11-05T18:06:59.387Z,101026.22
2022-11-05T18:09:26.020Z,101027.25
2022-11-05T18:11:54.171Z,101033.00
2022-11-05T18:14:24.034Z,101036.25
2022-11-05T18:16:51.413Z,101030.81
2022-11-05T18:19:17.874Z,101031.84
2022-11-05T18:21:44.306Z,101038.44
2022-11-05T18:24:11.703Z,101039.16
2022-11-05T18:26:38.084Z,101037.41
2022-11-05T18:29:06.132Z,101025.16
2022-11-05T18:31:32.551Z,101023.91
2022-11-05T18:33:59.631Z,101017.53
2022-11-05T18:36:27.716Z,101014.22
2022-11-05T18:38:54.315Z,101016.66
2022-11-05T18:41:20.900Z,101004.97
2022-11-05T18:43:47.510Z,101003.78
2022-11-05T18:46:35.707Z,101005.88
2022-11-05T18:49:02.194Z,100999.88
2022-11-05T18:51:28.726Z,100993.22
2022-11-05T18:53:55.482Z,100998.97
2022-11-05T18:56:22.581Z,101002.88
2022-11-05T18:58:49.742Z,100992.38
2022-11-05T19:01:20.071Z,100993.34
2022-11-05T19:03:47.318Z,101000.19
2022-11-05T19:06:13.796Z,101001.78
2022-11-05T19:08:40.654Z,101004.88
2022-11-05T19:11:09.172Z,101007.41
2022-11-05T19:13:36.092Z,101009.25
2022-11-05T19:16:05.528Z,101005.66
2022-11-05T19:18:33.441Z,101005.25
2022-11-05T19:20:59.872Z,101003.00
2022-11-05T19:23:26.271Z,101002.63
2022-11-05T19:25:52.707Z,101000.09
2022-11-05T19:28:19.118Z,100997.31
2022-11-05T19:30:45.611Z,101004.91
2022-11-05T19:33:12.055Z,101003.81
2022-11-05T19:35:41.609Z,101002.13
2022-11-05T19:38:08.090Z,100996.63
2022-11-05T19:40:36.842Z,100989.03
2022-11-05T19:43:03.293Z,100980.72
2022-11-05T19:45:43.989Z,100982.91
2022-11-05T19:48:16.169Z,101000.06
2022-11-05T19:50:47.149Z,100997.28
2022-11-05T19:53:13.560Z,100979.50
2022-11-05T19:55:40.327Z,100995.16
2022-11-05T19:58:07.460Z,100992.66
2022-11-05T20:00:34.002Z,100982.91
2022-11-05T20:03:00.632Z,100979.69
2022-11-05T20:05:27.171Z,100989.00
2022-11-05T20:07:55.085Z,100994.03
2022-11-05T20:10:21.582Z,100992.38
2022-11-05T20:12:48.542Z,100995.53
2022-11-05T20:15:15.031Z,100994.31
2022-11-05T20:17:41.475Z,100998.72
2022-11-05T20:20:08.842Z,100996.00
2022-11-05T20:22:35.482Z,101002.47
2022-11-05T20:25:03.465Z,100999.28
2022-11-05T20:27:29.905Z,100998.22
2022-11-05T20:29:56.309Z,100996.88
2022-11-05T20:32:22.729Z,100998.66
2022-11-05T20:34:49.269Z,100995.63
2022-11-05T20:37:15.732Z,100997.91
2022-11-05T20:39:42.152Z,100996.59
2022-11-05T20:42:09.961Z,100998.31
2022-11-05T20:44:36.465Z,101000.53
2022-11-05T20:47:02.926Z,100993.72
2022-11-05T20:49:29.490Z,100994.59
2022-11-05T20:51:55.976Z,100993.75
2022-11-05T20:54:22.654Z,100997.09
2022-11-05T20:56:49.135Z,100993.03
2022-11-05T20:59:17.039Z,100996.63
2022-11-05T21:01:43.665Z,100995.38
2022-11-05T21:04:10.306Z,101000.81
2022-11-05T21:06:36.738Z,100998.22
2022-11-05T21:09:04.014Z,100998.53
2022-11-05T21:11:34.123Z,100994.63
2022-11-05T21:14:00.615Z,100996.09
2022-11-05T21:16:28.372Z,101004.97
2022-11-05T21:18:54.833Z,101015.94
2022-11-05T21:21:21.381Z,101019.88
2022-11-05T21:23:47.962Z,101009.59
2022-11-05T21:26:15.093Z,101010.41
2022-11-05T21:28:41.889Z,100999.78
2022-11-05T21:31:09.376Z,101012.03
2022-11-05T21:33:37.468Z,101014.50
2022-11-05T21:36:09.114Z,101009.72
2022-11-05T21:38:35.953Z,101014.06
2022-11-05T21:41:03.502Z,101008.97
2022-11-05T21:43:30.267Z,101005.09
2022-11-05T21:46:00.738Z,101004.41
2022-11-05T21:48:27.320Z,100990.34
2022-11-05T21:50:55.183Z,100996.19
2022-11-05T21:53:21.609Z,101003.25
2022-11-05T21:55:47.999Z,100995.66
2022-11-05T21:58:16.680Z,101008.28
2022-11-05T22:00:43.087Z,100996.28
2022-11-05T22:03:09.498Z,100996.06
2022-11-05T22:05:35.981Z,100993.84
2022-11-05T22:08:03.931Z,100991.66
2022-11-05T22:10:30.348Z,100988.91
2022-11-05T22:12:56.971Z,100983.50
2022-11-05T22:15:23.539Z,100991.03
2022-11-05T22:17:50.690Z,100986.13
2022-11-05T22:20:17.383Z,100979.66
2022-11-05T22:22:44.535Z,100975.25
2022-11-05T22:25:13.029Z,100974.16
2022-11-05T22:27:39.552Z,100978.72
2022-11-05T22:30:06.739Z,100978.03
2022-11-05T22:32:33.179Z,100966.94
2022-11-05T22:34:59.893Z,100972.19
2022-11-05T22:37:26.370Z,100968.41
2022-11-05T22:39:52.774Z,100965.94
2022-11-05T22:42:20.667Z,100982.31
2022-11-05T22:44:47.143Z,100971.72
2022-11-05T22:47:13.551Z,100971.63
2022-11-05T22:49:40.360Z,100972.94
2022-11-05T22:52:06.873Z,100974.91
2022-11-05T22:54:38.783Z,100971.00
2022-11-05T22:57:05.609Z,100957.06
2022-11-05T22:59:33.349Z,100957.72
2022-11-05T23:02:01.869Z,100955.69
2022-11-05T23:04:30.563Z,100946.59
2022-11-05T23:06:56.979Z,100948.06
2022-11-05T23:09:25.547Z,100945.81
2022-11-05T23:11:53.537Z,100944.56
2022-11-05T23:14:20.217Z,100940.75
2022-11-05T23:16:47.965Z,100943.47
2022-11-05T23:19:14.730Z,100944.47
2022-11-05T23:21:41.322Z,100935.03
2022-11-05T23:24:07.843Z,100931.50
2022-11-05T23:26:35.614Z,100938.34
2022-11-05T23:29:02.028Z,100936.59
2022-11-05T23:31:28.421Z,100937.03
2022-11-05T23:33:56.276Z,100941.41
2022-11-05T23:36:22.668Z,100940.81
2022-11-05T23:38:49.102Z,100934.06
2022-11-05T23:41:15.676Z,100933.59
2022-11-05T23:43:42.049Z,100927.25
2022-11-05T23:46:08.458Z,100926.31
2022-11-05T23:48:37.012Z,100920.84
2022-11-05T23:51:06.906Z,100913.44
2022-11-05T23:53:35.449Z,100914.41
2022-11-05T23:56:04.353Z,100914.75
2022-11-05T23:58:30.867Z,100910.72
